Rolla, Missouri
Current Conditions -  °F | °C
As of 3:53 AM on Saturday 01 Nov 2014 (Local Time) from KVIH Reporting Station
Clear Clear  
Wind Chill: 26°   Ceiling: Unl
Heat Index: 26°   Visibility: 10mi
Dew Point: 20°   Wind: 3mph
Humidity: 78%   Direction: 330°NNW
Pressure: 30.4"   Gusts: NA
Location:  37.95°N, 91.77°W
Report Text: KVIH 010853Z AUTO 33003KT 10SM CLR M03/M07 A3040 RMK AO2 SLP303 T10331067 51005
Loading
Personal Weather Stations






























Interactive Weather Map
Tropical Storm Tracking
New forecast layout! Learn more

10-Day Weather Forecast

Advertisements
Track Severe Weather on mobile